Fukui, Japan

11:53 PM JST on July 29, 2014 (GMT +0900)
Komatsu (RJNK) Elev 30 ft | 36.39 °N, 136.41 °E | Change Station

Current weather conditions updated 53 minutes ago

Clear
Clear
81 °F
Feels Like 84 °F
N
1
Wind Variable Wind from Variable
Gusts mph

Tomorrow is forecast to be nearly the same temperature as today. Showers and thunderstorms late.

Today
High -- | Low -- °F
--% Chance of Precip.
Yesterday
High -- | Low -- °F
Precip. -- in
4:59 AM 7:03 PM
Waxing Crescent, 6% visible
Pressure 29.89 in
Visibility 6.2 miles
Clouds
Heat Index 84 °F
Dew Point 70 °F
Humidity 70%
Rainfall 0.00 in
Snow Depth Not available.
UV Not available.
Pollen Not available.
Air Quality Not available.
Flu Activity Not available.
METAR RJNK 291400Z VRB01KT 9999 FEW/// 27/21 Q1012

More Conditions Fewer Conditions

Pressure 29.89 in
Visibility 6.2 miles
Clouds
Heat Index 84 °F
Dew Point 70 °F
Humidity 70%
Rainfall 0.00 in
Snow Depth Not available.
UV Not available.
Pollen Not available.
Air Quality Not available.
Flu Activity Not available.
METAR RJNK 291400Z VRB01KT 9999 FEW/// 27/21 Q1012

More Conditions Fewer Conditions

10-Day Weather Forecast

Almanac

Astronomy

Jul. 29, 2014 Rise Set
Actual Time 4:59 AM JST 7:03 PM JST
Civil Twilight 4:30 AM JST 7:32 PM JST
Nautical Twilight 3:55 AM JST 8:07 PM JST
Astronomical Twilight 3:18 AM JST 8:44 PM JST
Moon 6:56 AM JST 8:03 PM JST
Length of Visible Light 15h 01m
Length of Day
14h 04m
Tomorrow will be 1m 38s shorter.
Waxing Crescent, 6% of the Moon is Illuminated
Today
Waxing Crescent
Aug 3
First Quarter
Aug 10
Full
Aug 17
Last Quarter
Aug 25
New

Today's Extremes

Country Highs Country Lows

Community

WunderPhotos

Upload Photos

1,738,749 photos uploaded!

Nearby

Snow Depth

Not available.

Earthquake Activity

City Distance Mag. Time & Date
No recent earthquake activity has been reported nearby.
Minimum magnitude displayed is 2.5.

Coastal Water Temperatures

Place Temperature
No Stations Reporting

Nearby Weather Stations

There are no personal weather stations in this area.